createdAt,value
2018-12-20T00:01:27.523Z,47.00
2018-12-20T00:03:58.359Z,44.47
2018-12-20T00:06:30.699Z,50.00
2018-12-20T00:09:01.487Z,46.83
2018-12-20T00:11:33.154Z,50.53
2018-12-20T00:14:03.936Z,46.83
2018-12-20T00:16:34.830Z,47.23
2018-12-20T00:19:06.362Z,45.13
2018-12-20T00:21:38.096Z,46.20
2018-12-20T00:24:08.745Z,48.40
2018-12-20T00:26:39.391Z,43.47
2018-12-20T00:29:10.384Z,41.13
2018-12-20T00:31:41.448Z,45.08
2018-12-20T00:34:12.437Z,44.90
2018-12-20T00:36:43.297Z,45.80
2018-12-20T00:39:14.311Z,43.10
2018-12-20T00:41:44.927Z,41.33
2018-12-20T00:44:15.629Z,43.27
2018-12-20T00:46:47.160Z,43.20
2018-12-20T00:49:18.125Z,41.03
2018-12-20T00:51:48.202Z,40.17
2018-12-20T00:54:19.298Z,41.33
2018-12-20T00:56:50.054Z,43.07
2018-12-20T00:59:21.250Z,53.33
2018-12-20T01:01:52.300Z,42.17
2018-12-20T01:04:23.100Z,44.83
2018-12-20T01:06:54.152Z,48.33
2018-12-20T01:09:24.743Z,42.97
2018-12-20T01:11:55.674Z,45.90
2018-12-20T01:14:26.783Z,46.43
2018-12-20T01:16:57.897Z,41.40
2018-12-20T01:19:28.884Z,44.53
2018-12-20T01:21:59.850Z,40.60
2018-12-20T01:24:31.010Z,46.23
2018-12-20T01:27:02.197Z,42.03
2018-12-20T01:29:32.859Z,41.50
2018-12-20T01:32:03.783Z,39.37
2018-12-20T01:34:35.573Z,43.37
2018-12-20T01:37:06.567Z,47.13
2018-12-20T01:39:37.410Z,45.67
2018-12-20T01:42:07.697Z,46.73
2018-12-20T01:44:38.551Z,45.00
2018-12-20T01:47:09.369Z,39.57
2018-12-20T01:49:40.272Z,37.90
2018-12-20T01:52:11.371Z,41.83
2018-12-20T01:54:42.448Z,38.60
2018-12-20T01:57:13.796Z,43.33
2018-12-20T01:59:44.742Z,40.70
2018-12-20T02:02:15.642Z,40.17
2018-12-20T02:04:46.490Z,41.43
2018-12-20T02:07:17.083Z,41.50
2018-12-20T02:09:47.975Z,40.17
2018-12-20T02:12:18.892Z,41.73
2018-12-20T02:14:49.436Z,39.90
2018-12-20T02:17:20.104Z,42.83
2018-12-20T02:19:51.371Z,46.50
2018-12-20T02:22:22.439Z,46.43
2018-12-20T02:24:54.117Z,44.47
2018-12-20T02:27:24.866Z,46.13
2018-12-20T02:29:55.808Z,45.20
2018-12-20T02:32:27.324Z,46.60
2018-12-20T02:34:58.070Z,43.00
2018-12-20T02:37:29.149Z,40.67
2018-12-20T02:40:00.186Z,42.53
2018-12-20T02:42:31.063Z,45.90
2018-12-20T02:45:10.482Z,44.03
2018-12-20T02:47:34.631Z,46.53
2018-12-20T02:50:05.343Z,40.63
2018-12-20T02:52:36.125Z,41.40
2018-12-20T02:55:07.067Z,40.23
2018-12-20T02:57:38.620Z,45.30
2018-12-20T03:00:09.856Z,40.10
2018-12-20T03:02:40.594Z,40.73
2018-12-20T03:05:11.543Z,41.17
2018-12-20T03:07:41.870Z,40.80
2018-12-20T03:10:12.764Z,44.93
2018-12-20T03:12:44.223Z,38.20
2018-12-20T03:15:19.935Z,41.87
2018-12-20T03:17:47.695Z,38.00
2018-12-20T03:20:18.438Z,42.00
2018-12-20T03:22:49.374Z,40.67
2018-12-20T03:25:19.821Z,38.07
2018-12-20T03:27:50.804Z,43.00
2018-12-20T03:30:21.930Z,37.23
2018-12-20T03:32:52.553Z,49.77
2018-12-20T03:35:23.531Z,36.60
2018-12-20T03:37:54.199Z,36.33
2018-12-20T03:40:25.102Z,38.87
2018-12-20T03:42:55.953Z,39.23
2018-12-20T03:45:29.110Z,36.37
2018-12-20T03:47:59.758Z,38.83
2018-12-20T03:50:31.847Z,40.23
2018-12-20T03:53:03.099Z,39.27
2018-12-20T03:55:34.274Z,36.20
2018-12-20T03:58:05.194Z,41.27
2018-12-20T04:00:36.211Z,37.60
2018-12-20T04:03:07.135Z,34.80
2018-12-20T04:05:37.866Z,37.23
2018-12-20T04:08:08.686Z,43.30
2018-12-20T04:10:39.255Z,46.07
2018-12-20T04:13:09.988Z,48.97
2018-12-20T04:15:41.217Z,65.93
2018-12-20T04:18:12.117Z,76.23
2018-12-20T04:20:41.934Z,124.43
2018-12-20T04:23:13.284Z,126.93
2018-12-20T04:25:44.236Z,117.63
2018-12-20T04:28:15.391Z,151.37
2018-12-20T04:30:46.545Z,155.03
2018-12-20T04:33:17.991Z,135.17
2018-12-20T04:35:49.189Z,122.93
2018-12-20T04:38:20.162Z,117.70
2018-12-20T04:40:50.820Z,134.47
2018-12-20T04:43:21.937Z,120.67
2018-12-20T04:45:53.197Z,124.93
2018-12-20T04:48:24.064Z,130.77
2018-12-20T04:50:54.821Z,121.70
2018-12-20T04:53:25.898Z,120.90
2018-12-20T04:55:56.644Z,129.07
2018-12-20T04:58:27.508Z,124.87
2018-12-20T05:00:58.516Z,132.67
2018-12-20T05:03:28.571Z,123.07
2018-12-20T05:05:59.264Z,132.53
2018-12-20T05:08:30.155Z,123.90
2018-12-20T05:11:01.318Z,136.83
2018-12-20T05:13:32.368Z,158.93
2018-12-20T05:16:03.339Z,132.30
2018-12-20T05:18:34.226Z,129.53
2018-12-20T05:21:05.646Z,136.87
2018-12-20T05:23:35.714Z,120.37
2018-12-20T05:26:06.708Z,122.07
2018-12-20T05:28:37.898Z,133.40
2018-12-20T05:31:08.953Z,108.70
2018-12-20T05:33:39.808Z,119.67
2018-12-20T05:36:10.735Z,112.13
2018-12-20T05:38:41.490Z,104.93
2018-12-20T05:41:12.305Z,95.43
2018-12-20T05:43:43.495Z,92.67
2018-12-20T05:46:14.139Z,83.70
2018-12-20T05:48:44.254Z,74.37
2018-12-20T05:51:14.897Z,79.03
2018-12-20T05:53:45.399Z,73.37
2018-12-20T05:56:16.304Z,77.50
2018-12-20T05:58:48.069Z,83.87
2018-12-20T06:01:19.629Z,80.63
2018-12-20T06:03:50.765Z,76.97
2018-12-20T06:06:22.917Z,75.73
2018-12-20T06:08:53.735Z,79.93
2018-12-20T06:11:24.894Z,71.57
2018-12-20T06:13:56.550Z,69.33
2018-12-20T06:16:27.513Z,75.73
2018-12-20T06:18:58.353Z,70.83
2018-12-20T06:21:29.288Z,77.67
2018-12-20T06:24:00.974Z,71.80
2018-12-20T06:26:31.730Z,66.10
2018-12-20T06:29:02.335Z,78.80
2018-12-20T06:31:33.471Z,66.77
2018-12-20T06:34:03.929Z,73.27
2018-12-20T06:36:34.517Z,78.80
2018-12-20T06:39:08.301Z,86.90
2018-12-20T06:41:41.375Z,80.30
2018-12-20T06:44:12.407Z,80.00
2018-12-20T06:46:50.867Z,83.47
2018-12-20T06:49:20.989Z,78.53
2018-12-20T06:51:52.270Z,78.83
2018-12-20T06:54:23.192Z,82.53
2018-12-20T06:56:54.169Z,78.30
2018-12-20T06:59:24.772Z,96.23
2018-12-20T07:01:55.401Z,92.23
2018-12-20T07:04:25.431Z,97.63
2018-12-20T07:06:56.796Z,104.83
2018-12-20T07:09:27.778Z,100.63
2018-12-20T07:11:58.588Z,113.17
2018-12-20T07:14:28.429Z,90.70
2018-12-20T07:16:58.298Z,96.17
2018-12-20T07:19:28.249Z,99.73
2018-12-20T07:21:58.263Z,103.13
2018-12-20T07:24:28.226Z,101.00
2018-12-20T07:26:58.059Z,119.67
2018-12-20T07:29:27.972Z,125.10
2018-12-20T07:31:57.883Z,114.63
2018-12-20T07:34:27.782Z,119.73
2018-12-20T07:36:57.674Z,112.77
2018-12-20T07:39:29.771Z,109.77
2018-12-20T07:41:59.707Z,102.10
2018-12-20T07:44:29.562Z,112.00
2018-12-20T07:46:59.576Z,103.97
2018-12-20T07:49:29.441Z,117.73
2018-12-20T07:51:59.290Z,104.93
2018-12-20T07:54:29.192Z,105.60
2018-12-20T07:56:59.239Z,109.90
2018-12-20T07:59:29.227Z,104.73
2018-12-20T08:01:59.171Z,108.03
2018-12-20T08:04:29.178Z,109.83
2018-12-20T08:06:59.180Z,106.03
2018-12-20T08:09:29.077Z,106.53
2018-12-20T08:11:59.046Z,118.70
2018-12-20T08:14:28.876Z,102.47
2018-12-20T08:16:58.704Z,105.13
2018-12-20T08:19:36.059Z,104.53
2018-12-20T08:22:02.296Z,98.40
2018-12-20T08:24:32.468Z,108.20
2018-12-20T08:27:02.531Z,103.57
2018-12-20T08:29:32.371Z,99.90
2018-12-20T08:32:02.308Z,99.23
2018-12-20T08:34:32.121Z,92.67
2018-12-20T08:37:01.972Z,93.40
2018-12-20T08:39:31.813Z,93.07
2018-12-20T08:42:01.787Z,92.43
2018-12-20T08:44:31.610Z,87.37
2018-12-20T08:47:01.609Z,84.07
2018-12-20T08:49:31.418Z,93.57
2018-12-20T08:52:01.552Z,85.07
2018-12-20T08:54:31.366Z,91.73
2018-12-20T08:57:01.190Z,87.47
2018-12-20T08:59:31.270Z,100.23
2018-12-20T09:02:01.381Z,96.93
2018-12-20T09:04:31.446Z,97.30
2018-12-20T09:07:01.533Z,97.47
2018-12-20T09:09:31.512Z,100.63
2018-12-20T09:12:01.617Z,94.60
2018-12-20T09:14:31.510Z,94.10
2018-12-20T09:17:03.120Z,97.53
2018-12-20T09:19:33.410Z,93.10
2018-12-20T09:22:03.279Z,88.73
2018-12-20T09:24:33.432Z,92.37
2018-12-20T09:27:03.646Z,87.43
2018-12-20T09:29:33.520Z,90.23
2018-12-20T09:32:03.728Z,88.67
2018-12-20T09:34:33.633Z,97.83
2018-12-20T09:37:03.500Z,88.10
2018-12-20T09:39:33.517Z,98.10
2018-12-20T09:42:03.562Z,88.93
2018-12-20T09:44:33.676Z,89.13
2018-12-20T09:47:11.835Z,99.47
2018-12-20T09:49:40.826Z,87.37
2018-12-20T09:52:10.810Z,93.83
2018-12-20T09:54:40.642Z,85.97
2018-12-20T09:57:10.556Z,100.23
2018-12-20T09:59:40.481Z,87.90
2018-12-20T10:02:10.555Z,99.70
2018-12-20T10:04:40.405Z,82.97
2018-12-20T10:07:10.383Z,100.53
2018-12-20T10:09:40.373Z,96.67
2018-12-20T10:12:10.253Z,106.17
2018-12-20T10:14:40.072Z,104.97
2018-12-20T10:17:09.912Z,97.70
2018-12-20T10:19:39.932Z,96.60
2018-12-20T10:22:09.969Z,115.23
2018-12-20T10:24:39.973Z,104.20
2018-12-20T10:27:10.018Z,105.43
2018-12-20T10:29:40.069Z,117.77
2018-12-20T10:32:10.106Z,105.30
2018-12-20T10:34:39.983Z,109.60
2018-12-20T10:37:09.815Z,111.33
2018-12-20T10:39:39.717Z,106.30
2018-12-20T10:42:09.749Z,111.43
2018-12-20T10:44:45.973Z,113.33
2018-12-20T10:47:28.595Z,114.27
2018-12-20T10:49:52.827Z,107.67
2018-12-20T10:52:22.969Z,110.17
2018-12-20T10:54:52.841Z,119.13
2018-12-20T10:57:22.688Z,111.70
2018-12-20T10:59:52.630Z,122.10
2018-12-20T11:02:27.783Z,110.37
2018-12-20T11:05:05.488Z,115.57
2018-12-20T11:07:40.640Z,106.77
2018-12-20T11:10:15.840Z,117.77
2018-12-20T11:12:48.787Z,115.40
2018-12-20T11:15:18.681Z,108.87
2018-12-20T11:17:48.498Z,97.67
2018-12-20T11:20:18.462Z,111.90
2018-12-20T11:22:48.390Z,117.73
2018-12-20T11:25:18.430Z,120.17
2018-12-20T11:27:48.342Z,124.17
2018-12-20T11:30:18.254Z,115.57
2018-12-20T11:32:48.206Z,118.57
2018-12-20T11:35:18.014Z,130.67
2018-12-20T11:37:47.770Z,117.97
2018-12-20T11:40:17.729Z,122.07
2018-12-20T11:42:47.681Z,125.67
2018-12-20T11:45:17.488Z,118.57
2018-12-20T11:47:47.590Z,117.83
2018-12-20T11:50:17.824Z,123.73
2018-12-20T11:52:47.877Z,121.63
2018-12-20T11:55:17.698Z,126.10
2018-12-20T11:57:47.521Z,114.43
2018-12-20T12:00:17.446Z,109.53
2018-12-20T12:02:47.439Z,105.90
2018-12-20T12:05:17.657Z,119.70
2018-12-20T12:07:47.586Z,126.07
2018-12-20T12:10:17.410Z,129.63
2018-12-20T12:12:47.398Z,128.83
2018-12-20T12:15:17.368Z,111.77
2018-12-20T12:17:54.056Z,127.53
2018-12-20T12:20:19.398Z,122.60
2018-12-20T12:22:49.493Z,131.07
2018-12-20T12:25:19.524Z,130.30
2018-12-20T12:27:49.773Z,111.57
2018-12-20T12:30:19.720Z,117.43
2018-12-20T12:32:49.836Z,120.77
2018-12-20T12:35:19.651Z,128.70
2018-12-20T12:37:49.537Z,115.60
2018-12-20T12:40:19.431Z,107.10
2018-12-20T12:42:49.403Z,117.47
2018-12-20T12:45:19.325Z,112.00
2018-12-20T12:48:02.911Z,101.00
2018-12-20T12:50:26.739Z,93.63
2018-12-20T12:52:56.987Z,103.13
2018-12-20T12:55:26.930Z,107.07
2018-12-20T12:58:04.442Z,101.27
2018-12-20T13:00:29.014Z,106.63
2018-12-20T13:02:59.031Z,98.90
2018-12-20T13:05:28.994Z,113.57
2018-12-20T13:07:59.021Z,104.17
2018-12-20T13:10:30.014Z,110.60
2018-12-20T13:13:00.060Z,104.17
2018-12-20T13:15:30.293Z,112.33
2018-12-20T13:18:00.233Z,97.90
2018-12-20T13:20:30.352Z,90.37
2018-12-20T13:23:00.407Z,96.43
2018-12-20T13:25:30.486Z,95.50
2018-12-20T13:28:00.735Z,97.83
2018-12-20T13:30:30.802Z,100.43
2018-12-20T13:33:01.002Z,99.53
2018-12-20T13:35:30.807Z,95.67
2018-12-20T13:38:00.732Z,102.87
2018-12-20T13:40:30.781Z,95.57
2018-12-20T13:43:00.648Z,94.90
2018-12-20T13:45:30.641Z,94.23
2018-12-20T13:48:00.771Z,77.93
2018-12-20T13:50:30.662Z,87.50
2018-12-20T13:53:00.778Z,84.97
2018-12-20T13:55:30.592Z,88.50
2018-12-20T13:58:00.416Z,96.30
2018-12-20T14:00:30.478Z,94.40
2018-12-20T14:03:00.690Z,94.23
2018-12-20T14:05:30.849Z,89.23
2018-12-20T14:08:01.181Z,102.30
2018-12-20T14:10:31.357Z,100.33
2018-12-20T14:13:01.358Z,97.83
2018-12-20T14:15:31.234Z,103.47
2018-12-20T14:18:01.150Z,101.53
2018-12-20T14:20:31.121Z,111.93
2018-12-20T14:23:01.259Z,109.47
2018-12-20T14:25:31.441Z,99.07
2018-12-20T14:28:01.592Z,101.30
2018-12-20T14:30:31.804Z,112.73
2018-12-20T14:33:01.969Z,127.83
2018-12-20T14:35:31.811Z,118.90
2018-12-20T14:38:01.724Z,106.23
2018-12-20T14:40:31.889Z,115.73
2018-12-20T14:43:02.140Z,101.43
2018-12-20T14:45:32.084Z,98.10
2018-12-20T14:48:02.123Z,94.50
2018-12-20T14:50:32.372Z,97.87
2018-12-20T14:53:02.440Z,108.17
2018-12-20T14:55:32.351Z,92.43
2018-12-20T14:58:02.238Z,89.57
2018-12-20T15:00:32.478Z,97.17
2018-12-20T15:03:02.526Z,102.77
2018-12-20T15:05:32.623Z,102.73
2018-12-20T15:08:02.765Z,100.60
2018-12-20T15:10:32.846Z,99.40
2018-12-20T15:13:03.000Z,76.10
2018-12-20T15:15:32.836Z,96.78
2018-12-20T15:18:02.696Z,82.00
2018-12-20T15:20:40.295Z,84.33
2018-12-20T15:23:04.742Z,76.80
2018-12-20T15:25:34.619Z,85.67
2018-12-20T15:28:04.732Z,90.30
2018-12-20T15:30:34.644Z,91.15
2018-12-20T15:33:04.566Z,79.20
2018-12-20T15:35:34.420Z,78.97
2018-12-20T15:38:04.367Z,83.00
2018-12-20T15:40:34.325Z,76.67
2018-12-20T15:43:04.227Z,83.33
2018-12-20T15:45:34.024Z,79.73
2018-12-20T15:48:04.096Z,74.80
2018-12-20T15:50:34.071Z,77.27
2018-12-20T15:53:04.083Z,72.87
2018-12-20T15:55:33.969Z,67.70
2018-12-20T15:58:03.863Z,74.80
2018-12-20T16:00:33.812Z,69.40
2018-12-20T16:03:03.739Z,74.53
2018-12-20T16:05:33.786Z,77.17
2018-12-20T16:08:08.612Z,79.27
2018-12-20T16:10:38.718Z,89.03
2018-12-20T16:13:08.939Z,90.20
2018-12-20T16:15:39.053Z,93.57
2018-12-20T16:18:09.061Z,99.17
2018-12-20T16:20:39.198Z,100.20
2018-12-20T16:23:09.160Z,89.33
2018-12-20T16:25:39.532Z,90.17
2018-12-20T16:28:09.575Z,100.77
2018-12-20T16:30:39.926Z,100.07
2018-12-20T16:33:09.984Z,93.67
2018-12-20T16:35:39.874Z,89.97
2018-12-20T16:38:09.716Z,91.50
2018-12-20T16:40:39.690Z,92.50
2018-12-20T16:43:09.653Z,93.93
2018-12-20T16:45:41.036Z,88.60
2018-12-20T16:48:11.182Z,85.27
2018-12-20T16:50:41.035Z,88.13
2018-12-20T16:53:10.914Z,85.23
2018-12-20T16:55:40.814Z,91.00
2018-12-20T16:58:10.663Z,83.90
2018-12-20T17:00:40.687Z,91.93
2018-12-20T17:03:10.621Z,75.00
2018-12-20T17:05:40.630Z,80.70
2018-12-20T17:08:10.607Z,83.57
2018-12-20T17:10:41.041Z,94.17
2018-12-20T17:13:11.100Z,93.40
2018-12-20T17:15:41.035Z,86.37
2018-12-20T17:18:10.798Z,98.83
2018-12-20T17:20:40.781Z,83.07
2018-12-20T17:23:10.765Z,88.50
2018-12-20T17:25:40.673Z,86.33
2018-12-20T17:28:10.669Z,91.60
2018-12-20T17:30:40.570Z,90.53
2018-12-20T17:33:10.829Z,76.87
2018-12-20T17:35:40.832Z,83.10
2018-12-20T17:38:10.717Z,84.93
2018-12-20T17:40:40.733Z,73.40
2018-12-20T17:43:10.903Z,77.43
2018-12-20T17:45:41.118Z,87.30
2018-12-20T17:48:11.074Z,80.70
2018-12-20T17:50:41.267Z,82.00
2018-12-20T17:53:11.264Z,85.73
2018-12-20T17:55:44.908Z,76.20
2018-12-20T17:58:13.676Z,88.83
2018-12-20T18:00:43.838Z,74.53
2018-12-20T18:03:13.948Z,84.13
2018-12-20T18:05:44.065Z,66.93
2018-12-20T18:08:14.030Z,75.63
2018-12-20T18:10:44.219Z,75.70
2018-12-20T18:13:14.385Z,83.00
2018-12-20T18:15:44.429Z,67.93
2018-12-20T18:18:14.351Z,88.33
2018-12-20T18:20:44.431Z,87.53
2018-12-20T18:23:14.486Z,81.87
2018-12-20T18:25:44.477Z,93.93
2018-12-20T18:28:14.453Z,86.90
2018-12-20T18:30:44.451Z,99.90
2018-12-20T18:33:14.365Z,104.97
2018-12-20T18:35:44.281Z,87.47
2018-12-20T18:38:14.413Z,88.53
2018-12-20T18:40:44.495Z,100.27
2018-12-20T18:43:14.535Z,96.77
2018-12-20T18:45:44.696Z,94.17
2018-12-20T18:48:14.742Z,82.63
2018-12-20T18:50:44.823Z,99.40
2018-12-20T18:53:14.825Z,91.93
2018-12-20T18:55:44.749Z,97.77
2018-12-20T18:58:14.615Z,94.80
2018-12-20T19:00:44.649Z,94.07
2018-12-20T19:03:14.654Z,101.87
2018-12-20T19:05:44.649Z,94.17
2018-12-20T19:08:14.696Z,85.40
2018-12-20T19:10:44.813Z,95.00
2018-12-20T19:13:14.842Z,92.72
2018-12-20T19:15:44.777Z,93.00
2018-12-20T19:18:14.746Z,89.47
2018-12-20T19:20:44.864Z,93.20
2018-12-20T19:23:14.928Z,93.67
2018-12-20T19:25:45.067Z,90.53
2018-12-20T19:28:15.425Z,96.30
2018-12-20T19:30:46.260Z,92.97
2018-12-20T19:33:16.411Z,96.03
2018-12-20T19:35:47.194Z,91.40
2018-12-20T19:38:20.583Z,89.83
2018-12-20T19:40:49.337Z,94.13
2018-12-20T19:43:19.397Z,95.23
2018-12-20T19:45:49.395Z,90.53
2018-12-20T19:48:19.383Z,100.30
2018-12-20T19:50:53.125Z,100.33
2018-12-20T19:53:24.616Z,99.47
2018-12-20T19:55:56.143Z,90.40
2018-12-20T19:58:27.420Z,91.70
2018-12-20T20:00:59.693Z,91.90
2018-12-20T20:03:30.119Z,96.87
2018-12-20T20:06:02.097Z,88.00
2018-12-20T20:08:33.657Z,87.40
2018-12-20T20:11:05.373Z,95.90
2018-12-20T20:13:36.923Z,99.40
2018-12-20T20:16:07.557Z,90.43
2018-12-20T20:18:39.604Z,79.83
2018-12-20T20:21:11.155Z,83.93
2018-12-20T20:23:41.164Z,87.70
2018-12-20T20:26:11.374Z,83.87
2018-12-20T20:28:41.275Z,97.70
2018-12-20T20:31:12.523Z,80.93
2018-12-20T20:33:42.426Z,83.60
2018-12-20T20:36:12.468Z,79.80
2018-12-20T20:38:42.470Z,80.57
2018-12-20T20:41:12.584Z,93.47
2018-12-20T20:43:42.558Z,92.43
2018-12-20T20:46:12.593Z,84.57
2018-12-20T20:48:42.531Z,88.93
2018-12-20T20:51:12.471Z,85.13
2018-12-20T20:53:42.614Z,92.37
2018-12-20T20:56:12.481Z,81.27
2018-12-20T20:58:42.271Z,82.67
2018-12-20T21:01:12.499Z,93.67
2018-12-20T21:03:42.464Z,96.43
2018-12-20T21:06:12.398Z,92.10
2018-12-20T21:08:42.517Z,100.13
2018-12-20T21:11:13.562Z,91.97
2018-12-20T21:13:44.902Z,92.87
2018-12-20T21:16:16.030Z,83.53
2018-12-20T21:18:47.125Z,78.13
2018-12-20T21:21:18.098Z,74.70
2018-12-20T21:23:48.993Z,75.53
2018-12-20T21:26:20.013Z,83.10
2018-12-20T21:28:51.053Z,72.87
2018-12-20T21:31:21.395Z,71.27
2018-12-20T21:33:52.672Z,87.00
2018-12-20T21:36:23.538Z,94.50
2018-12-20T21:38:54.993Z,87.20
2018-12-20T21:41:26.456Z,103.03
2018-12-20T21:43:57.409Z,83.80
2018-12-20T21:46:29.103Z,77.50
2018-12-20T21:48:59.775Z,86.53
2018-12-20T21:51:30.282Z,97.80
2018-12-20T21:54:00.919Z,105.87
2018-12-20T21:56:31.580Z,100.77
2018-12-20T21:59:02.530Z,94.13
2018-12-20T22:01:33.284Z,106.83
2018-12-20T22:04:04.056Z,104.67
2018-12-20T22:06:34.411Z,99.03
2018-12-20T22:09:06.457Z,104.30
2018-12-20T22:11:37.351Z,107.43
2018-12-20T22:14:08.133Z,92.17
2018-12-20T22:16:38.707Z,81.30
2018-12-20T22:19:09.885Z,93.70
2018-12-20T22:21:41.379Z,95.93
2018-12-20T22:24:11.643Z,95.27
2018-12-20T22:26:42.534Z,94.60
2018-12-20T22:29:13.283Z,78.27
2018-12-20T22:31:44.602Z,97.23
2018-12-20T22:34:15.511Z,99.90
2018-12-20T22:36:46.447Z,76.67
2018-12-20T22:39:17.506Z,89.43
2018-12-20T22:41:48.127Z,101.73
2018-12-20T22:44:19.392Z,105.73
2018-12-20T22:46:50.576Z,121.53
2018-12-20T22:49:20.656Z,107.40
2018-12-20T22:51:51.200Z,90.33
2018-12-20T22:54:22.223Z,90.27
2018-12-20T22:56:53.028Z,103.90
2018-12-20T22:59:24.271Z,97.97
2018-12-20T23:01:55.661Z,104.27
2018-12-20T23:04:27.028Z,107.53
2018-12-20T23:06:57.611Z,115.53
2018-12-20T23:09:27.883Z,115.50
2018-12-20T23:11:58.475Z,112.80
2018-12-20T23:14:29.027Z,110.20
2018-12-20T23:16:59.650Z,107.10
2018-12-20T23:19:30.374Z,106.63
2018-12-20T23:22:00.934Z,124.40
2018-12-20T23:24:31.873Z,122.67
2018-12-20T23:27:04.599Z,134.50
2018-12-20T23:29:35.099Z,112.17
2018-12-20T23:32:05.742Z,113.47
2018-12-20T23:34:36.301Z,137.13
2018-12-20T23:37:06.862Z,128.27
2018-12-20T23:39:37.419Z,107.77
2018-12-20T23:42:07.426Z,112.83
2018-12-20T23:44:38.437Z,107.80
2018-12-20T23:47:09.080Z,115.60
2018-12-20T23:49:40.357Z,127.90
2018-12-20T23:52:11.473Z,128.83
2018-12-20T23:54:42.543Z,134.63
2018-12-20T23:57:13.593Z,123.67
2018-12-20T23:59:44.785Z,126.77
